createdAt,value
2022-12-13T00:01:33.353Z,-3.22
2022-12-13T00:04:06.087Z,-3.24
2022-12-13T00:06:34.867Z,-3.29
2022-12-13T00:09:03.033Z,-3.30
2022-12-13T00:11:30.861Z,-3.31
2022-12-13T00:13:58.775Z,-3.32
2022-12-13T00:16:27.522Z,-3.30
2022-12-13T00:18:56.997Z,-3.31
2022-12-13T00:21:28.865Z,-3.29
2022-12-13T00:23:57.079Z,-3.31
2022-12-13T00:26:26.826Z,-3.36
2022-12-13T00:28:55.480Z,-3.34
2022-12-13T00:34:13.847Z,-3.37
2022-12-13T00:36:43.521Z,-3.40
2022-12-13T00:39:13.938Z,-3.35
2022-12-13T00:41:41.992Z,-3.37
2022-12-13T00:44:12.656Z,-3.37
2022-12-13T00:46:41.468Z,-3.37
2022-12-13T00:49:11.768Z,-3.38
2022-12-13T00:51:40.635Z,-3.37
2022-12-13T00:54:11.273Z,-3.38
2022-12-13T00:56:39.198Z,-3.39
2022-12-13T00:59:07.414Z,-3.40
2022-12-13T01:01:37.759Z,-3.41
2022-12-13T01:04:08.016Z,-3.40
2022-12-13T01:06:38.734Z,-3.38
2022-12-13T01:09:11.387Z,-3.51
2022-12-13T01:11:39.495Z,-3.85
2022-12-13T01:14:07.312Z,-4.05
2022-12-13T01:16:35.158Z,-4.13
2022-12-13T01:19:03.078Z,-4.20
2022-12-13T01:21:30.956Z,-4.34
2022-12-13T01:24:03.430Z,-4.33
2022-12-13T01:26:33.841Z,-4.44
2022-12-13T01:29:01.887Z,-4.46
2022-12-13T01:31:30.033Z,-4.53
2022-12-13T01:33:58.176Z,-4.57
2022-12-13T01:36:28.308Z,-4.58
2022-12-13T01:38:58.539Z,-4.64
2022-12-13T01:41:29.061Z,-4.70
2022-12-13T01:44:03.277Z,-4.71
2022-12-13T01:46:32.783Z,-4.76
2022-12-13T01:49:06.194Z,-4.80
2022-12-13T01:51:53.287Z,-4.81
2022-12-13T01:54:33.337Z,-4.84
2022-12-13T01:57:06.572Z,-4.89
2022-12-13T01:59:38.369Z,-4.90
2022-12-13T02:02:07.650Z,-4.98
2022-12-13T02:04:46.662Z,-5.03
2022-12-13T02:07:22.957Z,-5.01
2022-12-13T02:09:56.532Z,-5.11
2022-12-13T02:12:29.828Z,-5.17
2022-12-13T02:15:01.499Z,-5.19
2022-12-13T02:17:45.333Z,-5.25
2022-12-13T02:20:58.553Z,-5.29
2022-12-13T02:23:52.480Z,-5.41
2022-12-13T02:26:41.709Z,-5.43
2022-12-13T02:29:39.116Z,-5.48
2022-12-13T02:32:15.626Z,-5.51
2022-12-13T02:34:50.020Z,-5.56
2022-12-13T02:37:24.068Z,-5.59
2022-12-13T02:40:01.161Z,-5.57
2022-12-13T02:42:36.151Z,-5.61
2022-12-13T02:45:09.559Z,-5.65
2022-12-13T02:47:40.849Z,-5.68
2022-12-13T02:50:11.444Z,-5.69
2022-12-13T02:52:42.907Z,-5.75
2022-12-13T02:55:14.352Z,-5.79
2022-12-13T02:57:44.860Z,-5.83
2022-12-13T03:00:16.732Z,-5.82
2022-12-13T03:02:57.210Z,-5.88
2022-12-13T03:05:51.402Z,-5.89
2022-12-13T03:08:24.940Z,-5.91
2022-12-13T03:11:04.721Z,-5.92
2022-12-13T03:13:37.037Z,-5.96
2022-12-13T03:16:23.457Z,-6.02
2022-12-13T03:18:55.157Z,-6.03
2022-12-13T03:21:23.341Z,-6.02
2022-12-13T03:23:51.486Z,-6.04
2022-12-13T03:26:23.328Z,-6.06
2022-12-13T03:28:51.884Z,-6.07
2022-12-13T03:31:20.735Z,-6.11
2022-12-13T03:33:48.802Z,-6.11
2022-12-13T03:36:19.861Z,-6.09
2022-12-13T03:38:52.407Z,-6.13
2022-12-13T03:41:24.342Z,-6.13
2022-12-13T03:43:52.443Z,-6.18
2022-12-13T03:46:20.399Z,-6.19
2022-12-13T03:48:48.541Z,-6.19
2022-12-13T03:51:16.434Z,-6.18
2022-12-13T03:53:45.735Z,-6.24
2022-12-13T03:56:13.823Z,-6.26
2022-12-13T03:58:43.312Z,-6.30
2022-12-13T04:01:13.473Z,-6.30
2022-12-13T04:03:42.987Z,-6.31
2022-12-13T04:06:12.511Z,-6.36
2022-12-13T04:08:51.538Z,-6.37
2022-12-13T04:11:42.943Z,-6.38
2022-12-13T04:14:11.926Z,-6.40
2022-12-13T04:16:40.033Z,-6.42
2022-12-13T04:19:07.960Z,-6.46
2022-12-13T04:21:35.971Z,-6.48
2022-12-13T04:24:05.817Z,-6.52
2022-12-13T04:26:33.464Z,-6.55
2022-12-13T04:29:01.706Z,-6.56
2022-12-13T04:31:29.602Z,-6.56
2022-12-13T04:33:57.579Z,-6.55
2022-12-13T04:36:31.703Z,-6.58
2022-12-13T04:39:00.852Z,-6.64
2022-12-13T04:41:34.415Z,-6.68
2022-12-13T04:44:04.641Z,-6.65
2022-12-13T04:46:33.148Z,-6.66
2022-12-13T04:49:01.212Z,-6.68
2022-12-13T04:51:29.294Z,-6.67
2022-12-13T04:53:57.238Z,-6.66
2022-12-13T04:56:46.508Z,-6.68
2022-12-13T04:59:14.391Z,-6.73
2022-12-13T05:01:42.431Z,-6.70
2022-12-13T05:04:10.381Z,-6.75
2022-12-13T05:06:38.229Z,-6.74
2022-12-13T05:09:11.362Z,-6.76
2022-12-13T05:11:45.569Z,-6.74
2022-12-13T05:14:23.577Z,-6.76
2022-12-13T05:16:52.082Z,-6.78
2022-12-13T05:19:20.366Z,-6.79
2022-12-13T05:21:49.739Z,-6.79
2022-12-13T05:24:17.742Z,-6.79
2022-12-13T05:26:45.730Z,-6.83
2022-12-13T05:29:15.009Z,-6.80
2022-12-13T05:31:43.042Z,-6.79
2022-12-13T05:34:11.020Z,-6.81
2022-12-13T05:36:38.980Z,-6.82
2022-12-13T05:39:06.949Z,-6.84
2022-12-13T05:41:55.950Z,-6.83
2022-12-13T05:44:32.450Z,-6.86
2022-12-13T05:47:02.237Z,-6.86
2022-12-13T05:49:30.831Z,-6.87
2022-12-13T05:52:02.333Z,-6.86
2022-12-13T05:54:30.214Z,-6.84
2022-12-13T05:56:58.647Z,-6.84
2022-12-13T05:59:26.941Z,-6.86
2022-12-13T06:01:57.043Z,-6.87
2022-12-13T06:04:24.951Z,-6.85
2022-12-13T06:06:53.259Z,-6.88
2022-12-13T06:09:21.827Z,-6.89
2022-12-13T06:11:50.184Z,-6.83
2022-12-13T06:14:22.223Z,-6.84
2022-12-13T06:16:52.158Z,-6.84
2022-12-13T06:19:22.797Z,-6.82
2022-12-13T06:21:51.423Z,-6.80
2022-12-13T06:24:21.145Z,-6.83
2022-12-13T06:26:49.144Z,-6.84
2022-12-13T06:29:23.643Z,-6.84
2022-12-13T06:32:02.403Z,-6.84
2022-12-13T06:34:34.517Z,-6.84
2022-12-13T06:37:05.103Z,-6.87
2022-12-13T06:39:33.801Z,-6.89
2022-12-13T06:42:03.259Z,-6.89
2022-12-13T06:44:31.254Z,-6.88
2022-12-13T06:47:11.129Z,-6.88
2022-12-13T06:49:44.549Z,-6.88
2022-12-13T06:52:13.760Z,-6.84
2022-12-13T06:54:42.353Z,-6.89
2022-12-13T06:57:10.625Z,-6.87
2022-12-13T06:59:38.889Z,-6.89
2022-12-13T07:02:15.332Z,-6.92
2022-12-13T07:04:54.577Z,-6.94
2022-12-13T07:07:22.822Z,-6.92
2022-12-13T07:09:50.741Z,-6.94
2022-12-13T07:12:19.296Z,-6.96
2022-12-13T07:14:47.343Z,-6.95
2022-12-13T07:17:33.477Z,-6.95
2022-12-13T07:20:08.383Z,-7.00
2022-12-13T07:22:41.572Z,-7.06
2022-12-13T07:25:27.703Z,-7.05
2022-12-13T07:28:01.202Z,-7.07
2022-12-13T07:30:31.394Z,-7.05
2022-12-13T07:32:59.368Z,-7.09
2022-12-13T07:35:29.092Z,-7.05
2022-12-13T07:37:56.756Z,-7.08
2022-12-13T07:40:24.790Z,-7.06
2022-12-13T07:42:52.988Z,-7.09
2022-12-13T07:45:21.573Z,-7.08
2022-12-13T07:47:49.663Z,-7.12
2022-12-13T07:50:24.049Z,-7.11
2022-12-13T07:52:54.829Z,-7.08
2022-12-13T07:55:33.578Z,-7.10
2022-12-13T07:58:06.357Z,-7.12
2022-12-13T08:00:34.493Z,-7.08
2022-12-13T08:03:03.056Z,-7.10
2022-12-13T08:05:38.856Z,-7.09
2022-12-13T08:08:11.825Z,-7.12
2022-12-13T08:10:40.320Z,-7.14
2022-12-13T08:13:08.432Z,-7.12
2022-12-13T08:15:36.489Z,-7.13
2022-12-13T08:18:05.191Z,-7.18
2022-12-13T08:20:33.164Z,-7.21
2022-12-13T08:23:02.904Z,-7.19
2022-12-13T08:25:32.855Z,-7.19
2022-12-13T08:28:01.594Z,-7.19
2022-12-13T08:30:30.670Z,-7.20
2022-12-13T08:32:58.631Z,-7.22
2022-12-13T08:35:34.595Z,-7.21
2022-12-13T08:38:03.214Z,-7.23
2022-12-13T08:40:32.630Z,-7.26
2022-12-13T08:43:00.613Z,-7.26
2022-12-13T08:45:28.769Z,-7.25
2022-12-13T08:47:59.722Z,-7.31
2022-12-13T08:50:27.697Z,-7.30
2022-12-13T08:52:55.623Z,-7.28
2022-12-13T08:55:31.503Z,-7.33
2022-12-13T08:58:08.581Z,-7.34
2022-12-13T09:00:36.994Z,-7.34
2022-12-13T09:03:10.098Z,-7.35
2022-12-13T09:05:38.932Z,-7.36
2022-12-13T09:08:23.739Z,-7.39
2022-12-13T09:10:59.992Z,-7.40
2022-12-13T09:13:31.738Z,-7.41
2022-12-13T09:16:01.564Z,-7.42
2022-12-13T09:18:36.161Z,-7.47
2022-12-13T09:21:11.263Z,-7.43
2022-12-13T09:23:46.068Z,-7.46
2022-12-13T09:26:16.309Z,-7.46
2022-12-13T09:28:45.606Z,-7.47
2022-12-13T09:31:15.657Z,-7.48
2022-12-13T09:33:43.883Z,-7.46
2022-12-13T09:36:14.037Z,-7.46
2022-12-13T09:38:42.415Z,-7.46
2022-12-13T09:41:20.140Z,-7.52
2022-12-13T09:43:55.787Z,-7.51
2022-12-13T09:46:34.860Z,-7.53
2022-12-13T09:49:22.971Z,-7.49
2022-12-13T09:52:10.124Z,-7.50
2022-12-13T09:54:49.113Z,-7.48
2022-12-13T09:57:30.838Z,-7.50
2022-12-13T10:00:02.659Z,-7.51
2022-12-13T10:02:32.898Z,-7.51
2022-12-13T10:05:21.651Z,-7.53
2022-12-13T10:07:52.387Z,-7.49
2022-12-13T10:10:20.475Z,-7.49
2022-12-13T10:12:54.674Z,-7.49
2022-12-13T10:15:26.119Z,-7.51
2022-12-13T10:20:08.333Z,-7.49
2022-12-13T10:22:36.197Z,-7.54
2022-12-13T10:25:06.734Z,-7.51
2022-12-13T10:27:37.836Z,-7.51
2022-12-13T10:30:10.762Z,-7.48
2022-12-13T10:32:47.319Z,-7.51
2022-12-13T10:35:28.542Z,-7.46
2022-12-13T10:37:58.382Z,-7.50
2022-12-13T10:40:32.058Z,-7.48
2022-12-13T10:43:13.957Z,-7.43
2022-12-13T10:45:42.747Z,-7.48
2022-12-13T10:48:21.425Z,-7.47
2022-12-13T10:51:03.191Z,-7.49
2022-12-13T10:53:34.575Z,-7.47
2022-12-13T10:56:03.841Z,-7.51
2022-12-13T10:58:39.853Z,-7.48
2022-12-13T11:01:23.973Z,-7.48
2022-12-13T11:04:02.320Z,-7.49
2022-12-13T11:06:44.455Z,-7.54
2022-12-13T11:09:22.832Z,-7.47
2022-12-13T11:11:58.282Z,-7.48
2022-12-13T11:14:31.677Z,-7.52
2022-12-13T11:17:07.048Z,-7.57
2022-12-13T11:19:40.434Z,-7.57
2022-12-13T11:22:19.923Z,-7.63
2022-12-13T11:24:51.934Z,-7.67
2022-12-13T11:27:38.046Z,-7.66
2022-12-13T11:30:13.597Z,-7.63
2022-12-13T11:32:59.394Z,-7.65
2022-12-13T11:35:34.287Z,-7.68
2022-12-13T11:38:12.973Z,-7.74
2022-12-13T11:40:45.809Z,-7.71
2022-12-13T11:43:23.439Z,-7.72
2022-12-13T11:45:56.043Z,-7.77
2022-12-13T11:48:30.728Z,-7.76
2022-12-13T11:51:00.988Z,-7.74
2022-12-13T11:53:36.183Z,-7.78
2022-12-13T11:56:12.989Z,-7.73
2022-12-13T11:59:09.538Z,-7.77
2022-12-13T12:01:43.863Z,-7.76
2022-12-13T12:04:19.304Z,-7.80
2022-12-13T12:06:53.213Z,-7.81
2022-12-13T12:09:27.066Z,-7.82
2022-12-13T12:12:02.144Z,-7.91
2022-12-13T12:14:38.982Z,-7.85
2022-12-13T12:17:07.309Z,-7.89
2022-12-13T12:19:38.761Z,-7.95
2022-12-13T12:22:18.907Z,-7.90
2022-12-13T12:24:58.902Z,-7.92
2022-12-13T12:27:34.570Z,-7.97
2022-12-13T12:30:11.663Z,-7.94
2022-12-13T12:32:48.193Z,-8.00
2022-12-13T12:35:50.604Z,-8.01
2022-12-13T12:38:38.141Z,-8.08
2022-12-13T12:41:22.513Z,-8.08
2022-12-13T12:43:55.578Z,-8.06
2022-12-13T12:47:18.100Z,-8.09
2022-12-13T12:50:03.860Z,-8.12
2022-12-13T12:52:44.142Z,-8.15
2022-12-13T12:55:19.610Z,-8.16
2022-12-13T12:58:01.670Z,-8.20
2022-12-13T13:00:36.618Z,-8.21
2022-12-13T13:03:22.411Z,-8.24
2022-12-13T13:06:01.685Z,-8.32
2022-12-13T13:08:37.264Z,-8.37
2022-12-13T13:11:24.325Z,-8.43
2022-12-13T13:14:08.924Z,-8.45
2022-12-13T13:16:39.430Z,-8.48
2022-12-13T13:19:44.930Z,-8.49
2022-12-13T13:22:44.472Z,-8.56
2022-12-13T13:25:28.974Z,-8.58
2022-12-13T13:28:04.190Z,-8.63
2022-12-13T13:30:32.148Z,-8.65
2022-12-13T13:33:00.718Z,-8.65
2022-12-13T13:35:53.759Z,-8.69
2022-12-13T13:38:50.256Z,-8.70
2022-12-13T13:42:08.820Z,-8.80
2022-12-13T13:44:55.713Z,-8.84
2022-12-13T13:47:44.787Z,-8.84
2022-12-13T13:51:03.919Z,-8.90
2022-12-13T13:54:00.400Z,-8.96
2022-12-13T13:57:01.942Z,-8.99
2022-12-13T14:00:10.179Z,-9.08
2022-12-13T14:03:29.168Z,-9.21
2022-12-13T14:06:28.534Z,-9.21
2022-12-13T14:09:21.882Z,-9.43
2022-12-13T14:12:21.166Z,-9.49
2022-12-13T14:15:24.612Z,-9.58
2022-12-13T14:18:43.375Z,-9.65
2022-12-13T14:21:22.581Z,-9.80
2022-12-13T14:24:01.291Z,-9.88
2022-12-13T14:26:45.362Z,-9.91
2022-12-13T14:29:24.737Z,-9.88
2022-12-13T14:31:52.796Z,-9.88
2022-12-13T14:34:24.886Z,-9.89
2022-12-13T14:36:59.176Z,-9.93
2022-12-13T14:39:29.525Z,-10.09
2022-12-13T14:42:01.230Z,-10.07
2022-12-13T14:44:34.032Z,-10.09
2022-12-13T14:47:04.341Z,-10.14
2022-12-13T14:49:35.432Z,-10.15
2022-12-13T14:52:08.701Z,-10.20
2022-12-13T14:54:45.868Z,-10.24
2022-12-13T14:57:20.522Z,-10.18
2022-12-13T14:59:50.811Z,-10.16
2022-12-13T15:02:30.167Z,-10.24
2022-12-13T15:05:01.055Z,-10.26
2022-12-13T15:07:32.657Z,-10.32
2022-12-13T15:10:03.494Z,-10.26
2022-12-13T15:12:33.173Z,-10.34
2022-12-13T15:15:03.324Z,-10.42
2022-12-13T15:17:33.850Z,-10.34
2022-12-13T15:20:02.929Z,-10.38
2022-12-13T15:22:30.969Z,-10.34
2022-12-13T15:24:59.325Z,-10.33
2022-12-13T15:27:27.965Z,-10.49
2022-12-13T15:29:57.567Z,-10.44
2022-12-13T15:32:25.686Z,-10.49
2022-12-13T15:34:54.969Z,-10.54
2022-12-13T15:37:29.333Z,-10.52
2022-12-13T15:40:01.636Z,-10.53
2022-12-13T15:42:34.651Z,-10.58
2022-12-13T15:45:07.730Z,-10.51
2022-12-13T15:47:35.753Z,-10.50
2022-12-13T15:50:08.563Z,-10.52
2022-12-13T15:52:38.875Z,-10.57
2022-12-13T15:55:33.337Z,-10.72
2022-12-13T15:58:01.720Z,-10.66
2022-12-13T16:00:34.452Z,-10.71
2022-12-13T16:03:09.780Z,-10.66
2022-12-13T16:05:40.138Z,-10.66
2022-12-13T16:08:14.286Z,-10.61
2022-12-13T16:10:47.968Z,-10.61
2022-12-13T16:13:25.682Z,-10.62
2022-12-13T16:15:59.878Z,-10.59
2022-12-13T16:18:44.735Z,-10.58
2022-12-13T16:21:12.729Z,-10.55
2022-12-13T16:23:40.844Z,-10.63
2022-12-13T16:26:22.662Z,-10.65
2022-12-13T16:28:50.637Z,-10.71
2022-12-13T16:31:22.417Z,-10.63
2022-12-13T16:33:50.390Z,-10.67
2022-12-13T16:36:19.157Z,-10.64
2022-12-13T16:38:47.107Z,-10.63
2022-12-13T16:41:16.496Z,-10.68
2022-12-13T16:43:51.269Z,-10.80
2022-12-13T16:47:11.643Z,-10.78
2022-12-13T16:49:20.050Z,-10.78
2022-12-13T16:51:49.322Z,-10.74
2022-12-13T16:54:18.133Z,-10.83
2022-12-13T16:56:46.539Z,-10.81
2022-12-13T16:59:16.080Z,-10.78
2022-12-13T17:01:46.473Z,-10.78
2022-12-13T17:04:20.684Z,-10.76
2022-12-13T17:06:49.532Z,-10.84
2022-12-13T17:09:18.002Z,-10.84
2022-12-13T17:11:46.733Z,-10.80
2022-12-13T17:14:14.666Z,-10.87
2022-12-13T17:16:42.831Z,-10.90
2022-12-13T17:19:14.666Z,-10.85
2022-12-13T17:21:42.807Z,-10.87
2022-12-13T17:24:10.721Z,-10.90
2022-12-13T17:26:38.671Z,-10.91
2022-12-13T17:29:06.642Z,-10.87
2022-12-13T17:31:36.169Z,-10.86
2022-12-13T17:34:05.319Z,-10.89
2022-12-13T17:36:35.097Z,-10.93
2022-12-13T17:39:03.198Z,-10.90
2022-12-13T17:41:31.214Z,-10.93
2022-12-13T17:44:01.012Z,-10.90
2022-12-13T17:46:29.079Z,-10.97
2022-12-13T17:48:57.750Z,-10.88
2022-12-13T17:51:25.670Z,-10.90
2022-12-13T17:53:55.338Z,-10.95
2022-12-13T17:56:23.481Z,-10.93
2022-12-13T17:58:51.529Z,-10.97
2022-12-13T18:01:21.471Z,-10.97
2022-12-13T18:03:50.189Z,-11.06
2022-12-13T18:06:18.577Z,-11.09
2022-12-13T18:08:47.349Z,-11.03
2022-12-13T18:11:35.197Z,-11.14
2022-12-13T18:14:03.633Z,-11.11
2022-12-13T18:16:36.971Z,-11.11
2022-12-13T18:19:07.171Z,-11.09
2022-12-13T18:21:35.391Z,-11.10
2022-12-13T18:24:03.603Z,-11.15
2022-12-13T18:26:32.956Z,-11.17
2022-12-13T18:29:00.702Z,-11.15
2022-12-13T18:31:28.795Z,-11.12
2022-12-13T18:33:57.104Z,-11.15
2022-12-13T18:36:26.477Z,-11.24
2022-12-13T18:38:54.142Z,-11.41
2022-12-13T18:41:23.534Z,-11.36
2022-12-13T18:43:59.455Z,-11.37
2022-12-13T18:46:28.637Z,-11.29
2022-12-13T18:48:56.904Z,-11.25
2022-12-13T18:51:25.335Z,-11.38
2022-12-13T18:53:54.596Z,-11.33
2022-12-13T18:56:22.670Z,-11.28
2022-12-13T18:58:51.104Z,-11.26
2022-12-13T19:01:21.256Z,-11.30
2022-12-13T19:03:50.654Z,-11.28
2022-12-13T19:06:19.103Z,-11.29
2022-12-13T19:08:51.700Z,-11.27
2022-12-13T19:11:19.784Z,-11.24
2022-12-13T19:13:48.063Z,-11.30
2022-12-13T19:16:18.273Z,-11.33
2022-12-13T19:18:48.404Z,-11.34
2022-12-13T19:21:19.401Z,-11.38
2022-12-13T19:23:55.023Z,-11.36
2022-12-13T19:26:25.440Z,-11.35
2022-12-13T19:28:53.392Z,-11.38
2022-12-13T19:31:25.488Z,-11.40
2022-12-13T19:33:59.674Z,-11.40
2022-12-13T19:36:28.702Z,-11.36
2022-12-13T19:38:57.029Z,-11.32
2022-12-13T19:41:25.381Z,-11.35
2022-12-13T19:43:54.218Z,-11.39
2022-12-13T19:46:22.731Z,-11.39
2022-12-13T19:48:50.885Z,-11.37
2022-12-13T19:51:21.501Z,-11.44
2022-12-13T19:53:49.677Z,-11.43
2022-12-13T19:56:19.626Z,-11.43
2022-12-13T19:58:49.184Z,-11.43
2022-12-13T20:01:18.130Z,-11.39
2022-12-13T20:03:47.319Z,-11.46
2022-12-13T20:06:18.361Z,-11.48
2022-12-13T20:08:48.195Z,-11.43
2022-12-13T20:11:20.047Z,-11.36
2022-12-13T20:13:48.657Z,-11.39
2022-12-13T20:16:18.492Z,-11.37
2022-12-13T20:18:48.742Z,-11.36
2022-12-13T20:21:16.986Z,-11.35
2022-12-13T20:23:49.640Z,-11.38
2022-12-13T20:26:21.495Z,-11.44
2022-12-13T20:28:50.195Z,-11.45
2022-12-13T20:31:20.635Z,-11.46
2022-12-13T20:33:49.909Z,-11.49
2022-12-13T20:36:24.840Z,-11.51
2022-12-13T20:38:53.634Z,-11.53
2022-12-13T20:41:23.693Z,-11.44
2022-12-13T20:43:53.312Z,-11.50
2022-12-13T20:46:21.499Z,-11.43
2022-12-13T20:48:50.296Z,-11.43
2022-12-13T20:51:20.929Z,-11.60
2022-12-13T20:53:52.761Z,-11.52
2022-12-13T20:56:23.869Z,-11.54
2022-12-13T20:58:52.090Z,-11.54
2022-12-13T21:01:22.109Z,-11.57
2022-12-13T21:03:50.170Z,-11.53
2022-12-13T21:06:17.994Z,-11.57
2022-12-13T21:08:55.274Z,-11.53
2022-12-13T21:11:26.612Z,-11.56
2022-12-13T21:13:59.852Z,-11.55
2022-12-13T21:16:32.219Z,-11.54
2022-12-13T21:19:01.894Z,-11.52
2022-12-13T21:21:31.469Z,-11.55
2022-12-13T21:24:00.611Z,-11.57
2022-12-13T21:26:35.324Z,-11.57
2022-12-13T21:29:06.527Z,-11.55
2022-12-13T21:31:36.064Z,-11.51
2022-12-13T21:34:05.303Z,-11.52
2022-12-13T21:36:35.057Z,-11.53
2022-12-13T21:39:05.533Z,-11.57
2022-12-13T21:41:35.177Z,-11.52
2022-12-13T21:44:03.113Z,-11.48
2022-12-13T21:46:55.155Z,-11.58
2022-12-13T21:49:19.250Z,-11.58
2022-12-13T21:51:48.405Z,-11.57
2022-12-13T21:54:16.643Z,-11.53
2022-12-13T21:57:03.344Z,-11.57
2022-12-13T21:59:31.891Z,-11.57
2022-12-13T22:02:15.942Z,-11.60
2022-12-13T22:04:46.335Z,-11.58
2022-12-13T22:07:16.962Z,-11.63
2022-12-13T22:09:45.632Z,-11.65
2022-12-13T22:12:22.548Z,-11.69
2022-12-13T22:14:51.113Z,-11.58
2022-12-13T22:17:20.208Z,-11.59
2022-12-13T22:19:49.110Z,-11.55
2022-12-13T22:22:17.789Z,-11.57
2022-12-13T22:24:52.693Z,-11.59
2022-12-13T22:27:24.097Z,-11.56
2022-12-13T22:29:52.581Z,-11.61
2022-12-13T22:32:20.750Z,-11.59
2022-12-13T22:34:48.850Z,-11.63
2022-12-13T22:37:16.986Z,-11.60
2022-12-13T22:41:57.543Z,-11.66
2022-12-13T22:44:25.236Z,-11.65
2022-12-13T22:46:53.158Z,-11.61
2022-12-13T22:49:22.496Z,-11.63
2022-12-13T22:51:52.494Z,-11.62
2022-12-13T22:54:20.469Z,-11.60
2022-12-13T22:56:50.194Z,-11.60
2022-12-13T22:59:19.785Z,-11.59
2022-12-13T23:01:47.977Z,-11.60
2022-12-13T23:04:16.363Z,-11.65
2022-12-13T23:06:44.614Z,-11.71
2022-12-13T23:09:14.165Z,-11.73
2022-12-13T23:12:00.366Z,-11.73
2022-12-13T23:14:32.311Z,-11.75
2022-12-13T23:17:01.395Z,-11.74
2022-12-13T23:19:49.825Z,-11.69
2022-12-13T23:22:18.266Z,-11.74
2022-12-13T23:24:46.080Z,-11.72
2022-12-13T23:27:14.323Z,-11.69
2022-12-13T23:29:43.750Z,-11.75
2022-12-13T23:32:11.515Z,-11.69
2022-12-13T23:34:39.496Z,-11.71
2022-12-13T23:37:07.448Z,-11.63
2022-12-13T23:39:35.480Z,-11.64
2022-12-13T23:42:03.434Z,-11.63
2022-12-13T23:44:31.316Z,-11.60
2022-12-13T23:47:00.621Z,-11.58
2022-12-13T23:49:28.321Z,-11.71
2022-12-13T23:51:56.204Z,-11.65
2022-12-13T23:54:24.355Z,-11.65
2022-12-13T23:56:52.296Z,-11.69
2022-12-13T23:59:20.229Z,-11.64
